createdAt,value
2023-03-28T00:01:12.766Z,100.00
2023-03-28T00:03:41.443Z,100.00
2023-03-28T00:06:12.483Z,100.00
2023-03-28T00:08:42.989Z,100.00
2023-03-28T00:11:12.931Z,100.00
2023-03-28T00:13:41.360Z,100.00
2023-03-28T00:16:13.331Z,100.00
2023-03-28T00:18:42.935Z,100.00
2023-03-28T00:21:23.945Z,100.00
2023-03-28T00:23:55.823Z,100.00
2023-03-28T00:26:27.287Z,100.00
2023-03-28T00:28:56.896Z,100.00
2023-03-28T00:31:26.755Z,100.00
2023-03-28T00:33:55.684Z,100.00
2023-03-28T00:36:27.458Z,100.00
2023-03-28T00:38:58.258Z,100.00
2023-03-28T00:41:31.349Z,100.00
2023-03-28T00:44:01.572Z,100.00
2023-03-28T00:46:33.816Z,100.00
2023-03-28T00:49:07.299Z,100.00
2023-03-28T00:51:39.466Z,100.00
2023-03-28T00:54:13.500Z,100.00
2023-03-28T00:56:45.230Z,100.00
2023-03-28T00:59:19.276Z,100.00
2023-03-28T01:01:49.435Z,100.00
2023-03-28T01:04:22.518Z,100.00
2023-03-28T01:06:54.978Z,100.00
2023-03-28T01:09:25.697Z,100.00
2023-03-28T01:11:56.617Z,100.00
2023-03-28T01:14:27.398Z,100.00
2023-03-28T01:16:57.775Z,100.00
2023-03-28T01:19:42.807Z,100.00
2023-03-28T01:22:56.589Z,100.00
2023-03-28T01:25:50.061Z,100.00
2023-03-28T01:28:33.659Z,100.00
2023-03-28T01:31:26.233Z,100.00
2023-03-28T01:34:31.936Z,100.00
2023-03-28T01:37:16.139Z,100.00
2023-03-28T01:39:54.451Z,100.00
2023-03-28T01:42:31.358Z,100.00
2023-03-28T01:45:08.454Z,100.00
2023-03-28T01:47:41.403Z,100.00
2023-03-28T01:50:18.472Z,100.00
2023-03-28T01:52:55.503Z,100.00
2023-03-28T01:55:30.447Z,100.00
2023-03-28T01:58:06.104Z,100.00
2023-03-28T02:00:38.763Z,100.00
2023-03-28T02:03:12.469Z,100.00
2023-03-28T02:05:42.757Z,100.00
2023-03-28T02:08:15.368Z,100.00
2023-03-28T02:10:47.142Z,100.00
2023-03-28T02:13:20.567Z,100.00
2023-03-28T02:15:52.122Z,100.00
2023-03-28T02:18:30.035Z,100.00
2023-03-28T02:21:03.914Z,100.00
2023-03-28T02:23:38.634Z,100.00
2023-03-28T02:26:08.004Z,100.00
2023-03-28T02:28:38.826Z,100.00
2023-03-28T02:31:08.700Z,100.00
2023-03-28T02:33:41.220Z,100.00
2023-03-28T02:36:36.224Z,100.00
2023-03-28T02:39:32.205Z,100.00
2023-03-28T02:42:25.868Z,100.00
2023-03-28T02:45:15.449Z,100.00
2023-03-28T02:47:53.957Z,100.00
2023-03-28T02:50:27.612Z,100.00
2023-03-28T02:53:04.112Z,100.00
2023-03-28T02:55:39.967Z,100.00
2023-03-28T02:58:12.573Z,100.00
2023-03-28T03:00:42.331Z,100.00
2023-03-28T03:03:11.953Z,100.00
2023-03-28T03:05:41.696Z,100.00
2023-03-28T03:08:09.964Z,100.00
2023-03-28T03:10:40.176Z,100.00
2023-03-28T03:13:08.707Z,100.00
2023-03-28T03:15:37.335Z,100.00
2023-03-28T03:18:05.771Z,100.00
2023-03-28T03:20:34.781Z,100.00
2023-03-28T03:23:03.554Z,100.00
2023-03-28T03:25:32.203Z,100.00
2023-03-28T03:28:02.067Z,100.00
2023-03-28T03:30:30.910Z,100.00
2023-03-28T03:33:00.911Z,100.00
2023-03-28T03:35:33.613Z,100.00
2023-03-28T03:38:02.027Z,100.00
2023-03-28T03:40:30.717Z,100.00
2023-03-28T03:42:59.635Z,100.00
2023-03-28T03:45:29.663Z,100.00
2023-03-28T03:47:57.903Z,100.00
2023-03-28T03:50:26.312Z,100.00
2023-03-28T03:52:54.868Z,100.00
2023-03-28T03:55:23.070Z,100.00
2023-03-28T03:57:51.377Z,100.00
2023-03-28T04:00:19.903Z,100.00
2023-03-28T04:02:49.935Z,100.00
2023-03-28T04:05:18.591Z,100.00
2023-03-28T04:07:47.134Z,100.00
2023-03-28T04:10:16.336Z,100.00
2023-03-28T04:12:47.134Z,100.00
2023-03-28T04:15:15.637Z,100.00
2023-03-28T04:17:44.787Z,100.00
2023-03-28T04:20:15.373Z,100.00
2023-03-28T04:22:45.479Z,100.00
2023-03-28T04:25:18.043Z,100.00
2023-03-28T04:27:48.572Z,100.00
2023-03-28T04:30:18.420Z,100.00
2023-03-28T04:32:49.720Z,100.00
2023-03-28T04:35:19.976Z,100.00
2023-03-28T04:37:52.601Z,100.00
2023-03-28T04:40:21.935Z,100.00
2023-03-28T04:42:50.750Z,100.00
2023-03-28T04:45:19.418Z,100.00
2023-03-28T04:47:48.303Z,100.00
2023-03-28T04:50:16.993Z,100.00
2023-03-28T04:52:47.461Z,100.00
2023-03-28T04:55:17.319Z,100.00
2023-03-28T04:57:45.711Z,100.00
2023-03-28T05:00:17.115Z,100.00
2023-03-28T05:02:46.156Z,100.00
2023-03-28T05:05:15.967Z,100.00
2023-03-28T05:07:44.320Z,100.00
2023-03-28T05:10:14.335Z,100.00
2023-03-28T05:12:43.444Z,100.00
2023-03-28T05:15:22.901Z,100.00
2023-03-28T05:17:52.176Z,100.00
2023-03-28T05:20:21.733Z,100.00
2023-03-28T05:22:50.021Z,100.00
2023-03-28T05:25:20.651Z,100.00
2023-03-28T05:27:49.764Z,100.00
2023-03-28T05:30:18.431Z,100.00
2023-03-28T05:32:47.590Z,100.00
2023-03-28T05:35:18.609Z,100.00
2023-03-28T05:37:47.470Z,100.00
2023-03-28T05:40:16.925Z,100.00
2023-03-28T05:42:46.673Z,100.00
2023-03-28T05:45:15.489Z,100.00
2023-03-28T05:47:44.241Z,100.00
2023-03-28T05:50:12.892Z,100.00
2023-03-28T05:52:41.267Z,100.00
2023-03-28T05:55:11.389Z,100.00
2023-03-28T05:57:39.973Z,100.00
2023-03-28T06:00:14.003Z,100.00
2023-03-28T06:02:43.653Z,100.00
2023-03-28T06:05:12.456Z,100.00
2023-03-28T06:07:43.199Z,100.00
2023-03-28T06:10:13.832Z,100.00
2023-03-28T06:12:42.546Z,100.00
2023-03-28T06:15:13.518Z,100.00
2023-03-28T06:17:42.004Z,100.00
2023-03-28T06:20:11.405Z,100.00
2023-03-28T06:22:40.473Z,100.00
2023-03-28T06:25:09.804Z,100.00
2023-03-28T06:27:38.996Z,100.00
2023-03-28T06:30:08.880Z,100.00
2023-03-28T06:32:39.059Z,100.00
2023-03-28T06:35:08.754Z,100.00
2023-03-28T06:37:37.453Z,100.00
2023-03-28T06:40:06.392Z,100.00
2023-03-28T06:42:35.358Z,100.00
2023-03-28T06:45:04.433Z,100.00
2023-03-28T06:47:32.819Z,100.00
2023-03-28T06:50:02.815Z,100.00
2023-03-28T06:52:31.146Z,100.00
2023-03-28T06:55:00.600Z,100.00
2023-03-28T06:57:29.166Z,100.00
2023-03-28T06:59:57.795Z,100.00
2023-03-28T07:02:26.401Z,100.00
2023-03-28T07:04:55.756Z,100.00
2023-03-28T07:07:27.091Z,100.00
2023-03-28T07:09:56.498Z,100.00
2023-03-28T07:12:24.785Z,100.00
2023-03-28T07:14:55.047Z,100.00
2023-03-28T07:17:23.724Z,100.00
2023-03-28T07:19:54.474Z,100.00
2023-03-28T07:22:22.724Z,100.00
2023-03-28T07:24:52.567Z,100.00
2023-03-28T07:27:22.320Z,100.00
2023-03-28T07:29:51.613Z,100.00
2023-03-28T07:32:20.174Z,100.00
2023-03-28T07:34:48.677Z,100.00
2023-03-28T07:37:17.036Z,100.00
2023-03-28T07:39:45.202Z,100.00
2023-03-28T07:42:15.527Z,100.00
2023-03-28T07:44:43.908Z,100.00
2023-03-28T07:47:12.532Z,100.00
2023-03-28T07:49:41.248Z,100.00
2023-03-28T07:52:09.994Z,100.00
2023-03-28T07:54:38.696Z,100.00
2023-03-28T07:57:07.372Z,100.00
2023-03-28T07:59:37.555Z,100.00
2023-03-28T08:02:06.203Z,100.00
2023-03-28T08:04:34.862Z,98.41
2023-03-28T08:07:03.645Z,97.24
2023-03-28T08:09:32.524Z,96.23
2023-03-28T08:12:00.929Z,95.40
2023-03-28T08:14:29.870Z,94.86
2023-03-28T08:16:59.893Z,84.39
2023-03-28T08:19:28.300Z,84.49
2023-03-28T08:21:58.965Z,84.74
2023-03-28T08:24:35.164Z,85.09
2023-03-28T08:27:04.889Z,83.82
2023-03-28T08:29:33.625Z,81.89
2023-03-28T08:32:05.400Z,82.06
2023-03-28T08:34:34.181Z,77.20
2023-03-28T08:37:02.879Z,79.95
2023-03-28T08:39:31.258Z,81.28
2023-03-28T08:42:14.901Z,76.95
2023-03-28T08:44:59.438Z,77.78
2023-03-28T08:47:32.776Z,79.36
2023-03-28T08:50:04.941Z,73.57
2023-03-28T08:52:33.751Z,73.63
2023-03-28T08:55:07.124Z,69.88
2023-03-28T08:57:38.035Z,62.26
2023-03-28T09:00:15.565Z,60.67
2023-03-28T09:02:46.394Z,61.07
2023-03-28T09:07:55.627Z,61.76
2023-03-28T09:10:33.904Z,61.31
2023-03-28T09:13:17.624Z,60.31
2023-03-28T09:15:59.585Z,61.13
2023-03-28T09:18:52.099Z,62.41
2023-03-28T09:21:29.589Z,63.01
2023-03-28T09:24:38.316Z,59.10
2023-03-28T09:27:08.380Z,58.40
2023-03-28T09:29:43.415Z,59.86
2023-03-28T09:32:21.062Z,60.44
2023-03-28T09:34:52.118Z,60.95
2023-03-28T09:37:32.869Z,59.18
2023-03-28T09:40:08.918Z,57.62
2023-03-28T09:42:45.678Z,56.09
2023-03-28T09:45:30.558Z,56.48
2023-03-28T09:47:59.540Z,55.65
2023-03-28T09:50:29.555Z,55.98
2023-03-28T09:52:59.531Z,53.60
2023-03-28T09:55:30.896Z,53.71
2023-03-28T09:58:05.314Z,52.49
2023-03-28T10:00:39.692Z,52.14
2023-03-28T10:03:23.290Z,52.70
2023-03-28T10:05:53.470Z,52.43
2023-03-28T10:08:34.899Z,53.04
2023-03-28T10:11:07.092Z,51.33
2023-03-28T10:13:40.644Z,52.66
2023-03-28T10:16:12.209Z,52.34
2023-03-28T10:18:42.791Z,53.41
2023-03-28T10:21:15.828Z,51.56
2023-03-28T10:23:51.323Z,52.86
2023-03-28T10:26:24.206Z,51.56
2023-03-28T10:28:54.833Z,49.00
2023-03-28T10:31:29.519Z,50.44
2023-03-28T10:33:59.591Z,49.76
2023-03-28T10:36:33.035Z,51.34
2023-03-28T10:39:14.268Z,48.58
2023-03-28T10:41:54.314Z,49.23
2023-03-28T10:44:29.220Z,50.22
2023-03-28T10:47:01.254Z,50.35
2023-03-28T10:49:31.086Z,50.15
2023-03-28T10:52:01.379Z,50.57
2023-03-28T10:54:46.600Z,49.99
2023-03-28T10:57:24.276Z,49.32
2023-03-28T10:59:59.007Z,49.58
2023-03-28T11:03:01.480Z,49.87
2023-03-28T11:05:40.620Z,51.66
2023-03-28T11:08:34.635Z,50.77
2023-03-28T11:11:12.849Z,49.78
2023-03-28T11:13:48.152Z,50.76
2023-03-28T11:16:25.507Z,50.83
2023-03-28T11:19:07.218Z,49.75
2023-03-28T11:21:44.949Z,50.59
2023-03-28T11:24:27.050Z,48.74
2023-03-28T11:27:15.008Z,47.89
2023-03-28T11:29:49.552Z,47.86
2023-03-28T11:32:23.026Z,49.24
2023-03-28T11:35:04.469Z,49.04
2023-03-28T11:37:38.705Z,50.33
2023-03-28T11:40:20.652Z,50.85
2023-03-28T11:42:52.912Z,51.27
2023-03-28T11:45:46.765Z,50.62
2023-03-28T11:48:20.388Z,51.50
2023-03-28T11:51:00.320Z,49.72
2023-03-28T11:53:33.842Z,48.85
2023-03-28T11:56:15.017Z,48.35
2023-03-28T11:58:48.050Z,48.12
2023-03-28T12:01:20.671Z,47.34
2023-03-28T12:04:00.390Z,50.43
2023-03-28T12:06:35.455Z,48.57
2023-03-28T12:09:12.889Z,50.30
2023-03-28T12:11:48.451Z,48.27
2023-03-28T12:14:33.044Z,50.00
2023-03-28T12:17:07.426Z,47.29
2023-03-28T12:19:41.699Z,48.02
2023-03-28T12:22:15.679Z,47.48
2023-03-28T12:24:47.236Z,47.70
2023-03-28T12:27:25.555Z,49.05
2023-03-28T12:30:00.559Z,46.04
2023-03-28T12:32:38.372Z,44.08
2023-03-28T12:35:16.004Z,43.78
2023-03-28T12:37:57.074Z,44.56
2023-03-28T12:40:32.359Z,45.91
2023-03-28T12:43:02.569Z,45.83
2023-03-28T12:45:32.552Z,46.93
2023-03-28T12:48:07.496Z,44.84
2023-03-28T12:50:43.259Z,45.79
2023-03-28T12:53:14.137Z,46.71
2023-03-28T12:55:50.120Z,44.38
2023-03-28T12:58:26.293Z,45.09
2023-03-28T13:01:06.061Z,43.22
2023-03-28T13:03:47.625Z,43.42
2023-03-28T13:06:25.790Z,44.52
2023-03-28T13:09:18.481Z,44.06
2023-03-28T13:11:56.265Z,42.89
2023-03-28T13:14:42.236Z,43.49
2023-03-28T13:17:23.547Z,42.65
2023-03-28T13:19:54.689Z,43.39
2023-03-28T13:22:33.258Z,45.01
2023-03-28T13:25:26.632Z,43.24
2023-03-28T13:27:57.158Z,43.32
2023-03-28T13:30:30.606Z,44.58
2023-03-28T13:33:02.297Z,43.53
2023-03-28T13:36:11.826Z,43.96
2023-03-28T13:38:48.764Z,43.27
2023-03-28T13:41:55.809Z,43.88
2023-03-28T13:44:31.150Z,43.34
2023-03-28T13:47:01.601Z,43.17
2023-03-28T13:49:39.278Z,43.09
2023-03-28T13:52:12.472Z,44.12
2023-03-28T13:54:41.884Z,43.41
2023-03-28T13:57:17.857Z,43.56
2023-03-28T13:59:53.604Z,43.24
2023-03-28T14:02:33.501Z,42.94
2023-03-28T14:05:15.748Z,43.24
2023-03-28T14:07:44.162Z,43.71
2023-03-28T14:10:24.095Z,41.96
2023-03-28T14:12:54.505Z,43.41
2023-03-28T14:15:29.153Z,43.21
2023-03-28T14:18:01.371Z,42.57
2023-03-28T14:20:30.685Z,42.72
2023-03-28T14:23:01.568Z,42.85
2023-03-28T14:25:30.879Z,42.79
2023-03-28T14:28:07.678Z,42.81
2023-03-28T14:30:41.003Z,43.07
2023-03-28T14:33:20.955Z,42.76
2023-03-28T14:35:58.766Z,42.93
2023-03-28T14:38:33.307Z,42.73
2023-03-28T14:41:08.247Z,43.74
2023-03-28T14:43:37.212Z,43.83
2023-03-28T14:46:09.603Z,44.24
2023-03-28T14:48:41.365Z,44.63
2023-03-28T14:51:14.531Z,44.10
2023-03-28T14:53:46.721Z,44.16
2023-03-28T14:56:19.707Z,45.31
2023-03-28T14:58:51.066Z,44.50
2023-03-28T15:01:23.355Z,43.60
2023-03-28T15:03:58.908Z,44.26
2023-03-28T15:06:29.600Z,45.22
2023-03-28T15:09:00.182Z,44.11
2023-03-28T15:11:32.988Z,45.31
2023-03-28T15:14:05.746Z,44.23
2023-03-28T15:16:40.100Z,44.72
2023-03-28T15:19:18.650Z,44.82
2023-03-28T15:21:56.514Z,46.72
2023-03-28T15:24:28.477Z,46.14
2023-03-28T15:27:01.861Z,44.33
2023-03-28T15:29:34.755Z,45.21
2023-03-28T15:32:07.118Z,45.96
2023-03-28T15:34:46.866Z,45.79
2023-03-28T15:37:20.255Z,46.70
2023-03-28T15:39:51.386Z,46.08
2023-03-28T15:42:35.899Z,46.93
2023-03-28T15:45:46.026Z,43.64
2023-03-28T15:48:20.423Z,43.31
2023-03-28T15:50:57.710Z,45.37
2023-03-28T15:53:31.290Z,47.23
2023-03-28T15:56:08.358Z,46.96
2023-03-28T15:58:43.618Z,46.71
2023-03-28T16:01:21.395Z,46.74
2023-03-28T16:03:51.728Z,45.92
2023-03-28T16:09:15.736Z,46.68
2023-03-28T16:11:45.596Z,46.29
2023-03-28T16:14:17.365Z,45.37
2023-03-28T16:16:46.696Z,45.85
2023-03-28T16:19:22.226Z,45.14
2023-03-28T16:21:52.776Z,45.54
2023-03-28T16:24:21.719Z,46.15
2023-03-28T16:26:50.233Z,45.85
2023-03-28T16:29:18.487Z,45.81
2023-03-28T16:31:46.638Z,45.60
2023-03-28T16:34:15.161Z,46.49
2023-03-28T16:36:43.791Z,44.69
2023-03-28T16:39:13.608Z,46.77
2023-03-28T16:41:42.132Z,46.28
2023-03-28T16:44:10.899Z,46.18
2023-03-28T16:46:39.569Z,44.26
2023-03-28T16:49:09.708Z,44.36
2023-03-28T16:51:38.292Z,44.96
2023-03-28T16:54:06.815Z,46.22
2023-03-28T16:56:37.909Z,45.75
2023-03-28T16:59:08.867Z,45.28
2023-03-28T17:01:39.062Z,46.10
2023-03-28T17:04:09.511Z,47.96
2023-03-28T17:06:39.068Z,46.83
2023-03-28T17:09:07.812Z,46.66
2023-03-28T17:11:37.816Z,49.13
2023-03-28T17:14:06.685Z,49.20
2023-03-28T17:16:36.417Z,48.33
2023-03-28T17:19:05.859Z,49.43
2023-03-28T17:21:35.112Z,47.49
2023-03-28T17:24:04.261Z,49.99
2023-03-28T17:26:33.737Z,49.56
2023-03-28T17:29:06.065Z,50.37
2023-03-28T17:31:35.707Z,50.09
2023-03-28T17:34:04.957Z,50.89
2023-03-28T17:36:34.987Z,52.33
2023-03-28T17:39:03.531Z,50.40
2023-03-28T17:41:31.898Z,50.46
2023-03-28T17:44:00.168Z,50.98
2023-03-28T17:46:30.157Z,51.38
2023-03-28T17:48:59.310Z,51.66
2023-03-28T17:51:28.541Z,51.26
2023-03-28T17:53:56.983Z,52.56
2023-03-28T17:56:26.120Z,54.88
2023-03-28T17:58:54.397Z,54.30
2023-03-28T18:01:23.125Z,54.37
2023-03-28T18:03:53.606Z,55.69
2023-03-28T18:06:22.487Z,56.97
2023-03-28T18:08:50.621Z,55.42
2023-03-28T18:11:20.132Z,54.34
2023-03-28T18:13:48.971Z,55.33
2023-03-28T18:16:19.189Z,56.90
2023-03-28T18:18:48.287Z,63.25
2023-03-28T18:21:18.172Z,61.56
2023-03-28T18:23:48.529Z,61.00
2023-03-28T18:26:17.286Z,62.61
2023-03-28T18:28:45.945Z,62.81
2023-03-28T18:31:16.295Z,62.33
2023-03-28T18:33:45.989Z,62.50
2023-03-28T18:36:15.782Z,61.68
2023-03-28T18:38:48.165Z,63.20
2023-03-28T18:41:18.997Z,66.72
2023-03-28T18:43:47.294Z,65.74
2023-03-28T18:46:16.338Z,65.76
2023-03-28T18:48:45.787Z,64.47
2023-03-28T18:51:14.610Z,64.57
2023-03-28T18:53:44.854Z,66.55
2023-03-28T18:56:15.347Z,72.82
2023-03-28T18:58:44.168Z,67.84
2023-03-28T19:01:12.981Z,67.63
2023-03-28T19:03:43.220Z,68.75
2023-03-28T19:06:14.122Z,69.71
2023-03-28T19:08:43.924Z,70.19
2023-03-28T19:11:16.970Z,68.04
2023-03-28T19:13:45.891Z,66.67
2023-03-28T19:16:16.657Z,68.90
2023-03-28T19:18:47.641Z,69.65
2023-03-28T19:21:17.746Z,70.92
2023-03-28T19:23:46.993Z,69.38
2023-03-28T19:26:19.563Z,71.19
2023-03-28T19:28:49.613Z,70.63
2023-03-28T19:31:20.442Z,75.26
2023-03-28T19:33:49.108Z,71.36
2023-03-28T19:36:17.800Z,69.38
2023-03-28T19:38:46.774Z,68.68
2023-03-28T19:41:20.147Z,73.25
2023-03-28T19:43:51.204Z,69.88
2023-03-28T19:46:28.022Z,71.09
2023-03-28T19:48:59.161Z,69.50
2023-03-28T19:51:28.844Z,70.67
2023-03-28T19:53:57.802Z,70.43
2023-03-28T19:56:28.069Z,70.21
2023-03-28T19:58:56.312Z,70.83
2023-03-28T20:01:24.862Z,70.11
2023-03-28T20:03:53.884Z,69.71
2023-03-28T20:06:24.324Z,69.23
2023-03-28T20:08:52.990Z,70.39
2023-03-28T20:11:22.504Z,72.83
2023-03-28T20:13:53.032Z,75.50
2023-03-28T20:16:22.145Z,74.19
2023-03-28T20:18:50.657Z,74.47
2023-03-28T20:21:19.157Z,73.78
2023-03-28T20:23:47.484Z,74.58
2023-03-28T20:26:18.890Z,74.10
2023-03-28T20:28:50.251Z,72.25
2023-03-28T20:31:21.100Z,74.14
2023-03-28T20:33:50.153Z,75.17
2023-03-28T20:36:18.721Z,72.12
2023-03-28T20:38:47.930Z,71.00
2023-03-28T20:41:18.975Z,69.48
2023-03-28T20:43:48.161Z,71.62
2023-03-28T20:46:19.946Z,72.47
2023-03-28T20:48:53.392Z,72.42
2023-03-28T20:51:23.723Z,74.81
2023-03-28T20:53:54.904Z,74.70
2023-03-28T20:56:24.357Z,73.56
2023-03-28T20:58:53.772Z,74.75
2023-03-28T21:01:25.593Z,72.37
2023-03-28T21:03:59.104Z,72.74
2023-03-28T21:06:30.736Z,75.69
2023-03-28T21:09:01.226Z,73.53
2023-03-28T21:11:31.611Z,74.94
2023-03-28T21:14:02.071Z,75.08
2023-03-28T21:16:31.969Z,73.07
2023-03-28T21:19:02.861Z,75.17
2023-03-28T21:21:34.598Z,75.14
2023-03-28T21:24:05.838Z,72.71
2023-03-28T21:26:36.235Z,75.87
2023-03-28T21:29:04.959Z,79.01
2023-03-28T21:31:34.363Z,78.19
2023-03-28T21:34:05.115Z,75.88
2023-03-28T21:36:34.549Z,77.14
2023-03-28T21:39:02.768Z,76.00
2023-03-28T21:41:31.324Z,78.93
2023-03-28T21:44:00.220Z,75.14
2023-03-28T21:46:28.978Z,74.59
2023-03-28T21:48:58.033Z,75.40
2023-03-28T21:51:27.716Z,75.77
2023-03-28T21:53:57.658Z,74.89
2023-03-28T21:56:26.395Z,73.53
2023-03-28T21:58:54.912Z,70.26
2023-03-28T22:01:23.369Z,73.47
2023-03-28T22:03:52.285Z,73.19
2023-03-28T22:06:21.031Z,74.32
2023-03-28T22:08:52.656Z,76.26
2023-03-28T22:11:28.222Z,76.16
2023-03-28T22:14:01.509Z,77.23
2023-03-28T22:16:35.235Z,77.40
2023-03-28T22:19:03.524Z,77.65
2023-03-28T22:21:33.043Z,77.58
2023-03-28T22:24:04.503Z,72.53
2023-03-28T22:26:33.014Z,73.49
2023-03-28T22:29:01.687Z,73.97
2023-03-28T22:31:31.009Z,73.21
2023-03-28T22:33:59.861Z,76.26
2023-03-28T22:36:29.181Z,76.36
2023-03-28T22:38:58.060Z,75.54
2023-03-28T22:41:32.106Z,75.45
2023-03-28T22:44:01.197Z,76.96
2023-03-28T22:46:30.693Z,77.67
2023-03-28T22:48:59.598Z,76.76
2023-03-28T22:51:30.237Z,76.34
2023-03-28T22:54:02.043Z,79.44
2023-03-28T22:56:32.484Z,80.57
2023-03-28T22:59:03.155Z,74.27
2023-03-28T23:01:32.799Z,76.17
2023-03-28T23:04:01.693Z,76.38
2023-03-28T23:06:30.028Z,78.66
2023-03-28T23:08:59.043Z,79.10
2023-03-28T23:11:28.745Z,78.62
2023-03-28T23:14:00.154Z,76.95
2023-03-28T23:16:28.909Z,76.60
2023-03-28T23:18:57.826Z,77.10
2023-03-28T23:21:28.639Z,77.49
2023-03-28T23:23:58.143Z,81.04
2023-03-28T23:26:27.978Z,80.42
2023-03-28T23:28:58.331Z,84.39
2023-03-28T23:31:28.080Z,78.91
2023-03-28T23:33:57.160Z,84.21
2023-03-28T23:36:26.473Z,81.26
2023-03-28T23:38:55.543Z,78.83
2023-03-28T23:41:25.330Z,78.17
2023-03-28T23:43:54.386Z,80.18
2023-03-28T23:46:24.905Z,83.17
2023-03-28T23:48:54.365Z,78.83
2023-03-28T23:51:24.658Z,81.13
2023-03-28T23:53:54.040Z,76.82
2023-03-28T23:56:24.282Z,80.27
2023-03-28T23:58:54.109Z,79.25
